^^
Paulen-Weather Station Historical Data
Daily Summary for July 03, 2022 Units:  Metric    English   Both
Daily Weekly Monthly Yearly Custom
  High: Low: Average:
Temperature: 19 °C 13 °C 15.8 °C
Dew Point: 16 °C 12 °C 14.2 °C
Humidity: 96% 78% 90%
Wind Speed: 38km/h 2km/h 14.8km/h
Wind Gust: 28km/h - -
Wind- - SSW
Pressure: 1015.37 hPa 1014.16 hPa -
Precipitation: 11.61 mm    
Historical Graphs
 
 
Tabular Data for July 03, 2022
Time Temperature Dew Point Pressure Wind Wind Speed Wind Gust Humidity Rainfall Rate (Hourly) solar
00:04 16 °C 14 °C 1015.37 hPa S 20 km/h 16 km/h 85% 0 mm 0 W/m2
00:09 16 °C 14 °C 1015.34 hPa SSW 17 km/h 14 km/h 85% 0 mm 0 W/m2
00:14 16 °C 14 °C 1015.34 hPa SSW 18 km/h 13 km/h 86% 0 mm 0 W/m2
00:19 16 °C 14 °C 1015.34 hPa S 17 km/h 14 km/h 86% 0 mm 0 W/m2
00:24 16 °C 14 °C 1015.31 hPa S 19 km/h 20 km/h 86% 0 mm 0 W/m2
00:29 16 °C 14 °C 1015.21 hPa S 19 km/h 19 km/h 87% 0 mm 0 W/m2
00:34 16 °C 14 °C 1015.1 hPa S 22 km/h 21 km/h 86% 0 mm 0 W/m2
00:39 16 °C 14 °C 1015.1 hPa S 24 km/h 21 km/h 86% 0 mm 0 W/m2
00:44 16 °C 14 °C 1015.04 hPa S 24 km/h 20 km/h 86% 0 mm 0 W/m2
00:49 16 °C 14 °C 1015.04 hPa SSW 23 km/h 20 km/h 85% 0 mm 0 W/m2
00:54 16 °C 14 °C 1015.07 hPa S 21 km/h 20 km/h 85% 0 mm 0 W/m2
00:59 16 °C 14 °C 1014.97 hPa S 26 km/h 22 km/h 85% 0 mm 0 W/m2
01:04 16 °C 14 °C 1014.93 hPa S 28 km/h 24 km/h 85% 0 mm 0 W/m2
01:09 16 °C 14 °C 1014.9 hPa S 28 km/h 23 km/h 86% 0 mm 0 W/m2
01:14 16 °C 14 °C 1014.87 hPa S 31 km/h 23 km/h 87% 0.2 mm 0 W/m2
01:19 16 °C 14 °C 1014.93 hPa S 31 km/h 23 km/h 89% 0.2 mm 0 W/m2
01:24 16 °C 14 °C 1014.93 hPa S 26 km/h 23 km/h 90% 0.2 mm 0 W/m2
01:29 16 °C 14 °C 1014.83 hPa S 24 km/h 21 km/h 91% 0.41 mm 0 W/m2
01:34 16 °C 14 °C 1014.83 hPa S 32 km/h 27 km/h 91% 0.61 mm 0 W/m2
01:39 16 °C 14 °C 1014.83 hPa SSW 22 km/h 18 km/h 91% 0.61 mm 0 W/m2
01:44 16 °C 15 °C 1014.87 hPa SSW 19 km/h 19 km/h 91% 0.61 mm 0 W/m2
01:49 16 °C 14 °C 1014.83 hPa SSW 23 km/h 19 km/h 91% 0.61 mm 0 W/m2
01:54 16 °C 14 °C 1014.83 hPa S 24 km/h 21 km/h 91% 0.61 mm 0 W/m2
01:59 16 °C 15 °C 1014.8 hPa S 28 km/h 22 km/h 91% 0.61 mm 0 W/m2
02:04 16 °C 14 °C 1014.73 hPa S 27 km/h 24 km/h 90% 0.61 mm 0 W/m2
02:09 16 °C 14 °C 1014.7 hPa S 26 km/h 22 km/h 90% 0.61 mm 0 W/m2
02:14 16 °C 14 °C 1014.7 hPa S 27 km/h 20 km/h 90% 0.61 mm 0 W/m2
02:19 16 °C 14 °C 1014.7 hPa S 27 km/h 20 km/h 90% 0.41 mm 0 W/m2
02:24 16 °C 15 °C 1014.7 hPa S 25 km/h 21 km/h 90% 0.41 mm 0 W/m2
02:29 16 °C 15 °C 1014.63 hPa S 25 km/h 19 km/h 91% 0.41 mm 0 W/m2
02:34 16 °C 15 °C 1014.63 hPa S 25 km/h 22 km/h 91% 0.2 mm 0 W/m2
02:39 16 °C 15 °C 1014.6 hPa S 29 km/h 24 km/h 91% 0 mm 0 W/m2
02:44 16 °C 15 °C 1014.6 hPa S 23 km/h 19 km/h 91% 0 mm 0 W/m2
02:49 16 °C 15 °C 1014.56 hPa S 26 km/h 22 km/h 91% 0 mm 0 W/m2
02:54 16 °C 15 °C 1014.56 hPa S 30 km/h 26 km/h 91% 0 mm 0 W/m2
02:59 16 °C 15 °C 1014.56 hPa S 24 km/h 21 km/h 92% 0.41 mm 0 W/m2
03:04 16 °C 15 °C 1014.43 hPa S 29 km/h 24 km/h 93% 0.41 mm 0 W/m2
03:09 16 °C 15 °C 1014.36 hPa S 38 km/h 28 km/h 93% 0.41 mm 0 W/m2
03:14 16 °C 15 °C 1014.33 hPa S 30 km/h 23 km/h 92% 0.41 mm 0 W/m2
03:19 16 °C 15 °C 1014.29 hPa S 27 km/h 26 km/h 92% 0.41 mm 0 W/m2
03:24 16 °C 15 °C 1014.43 hPa SSW 33 km/h 28 km/h 92% 0.41 mm 0 W/m2
03:29 16 °C 15 °C 1014.53 hPa SSW 24 km/h 17 km/h 92% 0.41 mm 0 W/m2
03:34 16 °C 15 °C 1014.63 hPa WSW 12 km/h 9 km/h 92% 0.41 mm 0 W/m2
03:39 15 °C 14 °C 1014.66 hPa W 10 km/h 8 km/h 92% 0.41 mm 0 W/m2
03:44 15 °C 14 °C 1014.66 hPa W 10 km/h 7 km/h 91% 0.61 mm 0 W/m2
03:49 15 °C 13 °C 1014.63 hPa W 11 km/h 8 km/h 91% 1.19 mm 0 W/m2
03:54 14 °C 13 °C 1014.39 hPa WNW 12 km/h 12 km/h 92% 3 mm 0 W/m2
03:59 14 °C 13 °C 1014.7 hPa SSW 8 km/h 9 km/h 93% 3.81 mm 0 W/m2
04:04 14 °C 13 °C 1014.56 hPa WSW 7 km/h 6 km/h 94% 3.81 mm 0 W/m2
04:09 14 °C 13 °C 1014.46 hPa W 8 km/h 7 km/h 94% 3.99 mm 0 W/m2
04:14 14 °C 13 °C 1014.46 hPa WSW 5 km/h 4 km/h 95% 3.99 mm 0 W/m2
04:19 14 °C 13 °C 1014.46 hPa WSW 5 km/h 4 km/h 95% 3.99 mm 0 W/m2
04:24 14 °C 13 °C 1014.49 hPa W 5 km/h 5 km/h 95% 3.99 mm 0 W/m2
04:29 14 °C 14 °C 1014.46 hPa S 15 km/h 16 km/h 96% 3.99 mm 0 W/m2
04:34 15 °C 15 °C 1014.46 hPa SSW 22 km/h 20 km/h 96% 3.99 mm 0 W/m2
04:39 15 °C 15 °C 1014.43 hPa SSW 19 km/h 17 km/h 96% 3.99 mm 0 W/m2
04:44 16 °C 15 °C 1014.36 hPa S 25 km/h 19 km/h 95% 3.99 mm 0 W/m2
04:49 16 °C 15 °C 1014.29 hPa S 26 km/h 20 km/h 94% 3.81 mm 0 W/m2
04:54 16 °C 15 °C 1014.7 hPa SSW 28 km/h 24 km/h 93% 2.39 mm 0 W/m2
04:59 15 °C 14 °C 1014.8 hPa WSW 17 km/h 13 km/h 92% 1.19 mm 0 W/m2
05:04 14 °C 13 °C 1014.87 hPa SSW 15 km/h 9 km/h 92% 0.61 mm 0 W/m2
05:09 14 °C 13 °C 1014.83 hPa SW 10 km/h 7 km/h 92% 0.99 mm 0 W/m2
05:14 14 °C 13 °C 1014.83 hPa SSW 9 km/h 7 km/h 93% 1.4 mm 0 W/m2
05:19 14 °C 13 °C 1014.83 hPa SSW 10 km/h 8 km/h 94% 1.4 mm 0 W/m2
05:24 13 °C 13 °C 1014.83 hPa SW 9 km/h 7 km/h 94% 1.6 mm 0 W/m2
05:29 13 °C 12 °C 1014.93 hPa SW 7 km/h 6 km/h 94% 1.6 mm 0 W/m2
05:34 13 °C 13 °C 1014.9 hPa SSW 8 km/h 7 km/h 94% 1.6 mm 5 W/m2
05:39 14 °C 13 °C 1014.83 hPa SW 8 km/h 8 km/h 95% 1.6 mm 7 W/m2
05:44 14 °C 13 °C 1014.83 hPa SSW 8 km/h 9 km/h 95% 1.6 mm 7 W/m2
05:49 14 °C 13 °C 1014.87 hPa SW 10 km/h 9 km/h 95% 1.8 mm 7 W/m2
05:54 14 °C 13 °C 1014.9 hPa SSW 10 km/h 9 km/h 95% 2.39 mm 7 W/m2
05:59 14 °C 13 °C 1014.73 hPa SSW 9 km/h 8 km/h 95% 3 mm 7 W/m2
06:04 13 °C 13 °C 1014.8 hPa S 10 km/h 10 km/h 95% 3 mm 7 W/m2
06:09 13 °C 13 °C 1014.9 hPa SSW 10 km/h 9 km/h 95% 2.79 mm 9 W/m2
06:14 13 °C 13 °C 1014.93 hPa SSW 12 km/h 10 km/h 96% 2.59 mm 9 W/m2
06:19 13 °C 13 °C 1014.9 hPa SW 14 km/h 12 km/h 96% 2.59 mm 28 W/m2
06:24 13 °C 13 °C 1014.83 hPa SW 10 km/h 10 km/h 96% 2.79 mm 33 W/m2
06:29 13 °C 13 °C 1014.83 hPa SW 10 km/h 8 km/h 96% 2.59 mm 25 W/m2
06:34 13 °C 13 °C 1014.8 hPa SSW 8 km/h 8 km/h 96% 2.79 mm 40 W/m2
06:39 13 °C 13 °C 1014.77 hPa SSW 9 km/h 7 km/h 96% 2.79 mm 56 W/m2
06:44 13 °C 13 °C 1014.73 hPa SW 6 km/h 6 km/h 96% 2.79 mm 60 W/m2
06:49 13 °C 13 °C 1014.7 hPa SW 5 km/h 4 km/h 96% 2.79 mm 62 W/m2
06:54 14 °C 13 °C 1014.73 hPa SW 6 km/h 5 km/h 96% 2.39 mm 44 W/m2
06:59 14 °C 13 °C 1014.7 hPa S 6 km/h 6 km/h 96% 2.01 mm 79 W/m2
07:04 14 °C 13 °C 1014.7 hPa S 7 km/h 7 km/h 96% 1.4 mm 83 W/m2
07:09 14 °C 13 °C 1014.66 hPa S 7 km/h 5 km/h 96% 1.19 mm 107 W/m2
07:14 14 °C 14 °C 1014.66 hPa SSW 5 km/h 4 km/h 96% 0.79 mm 118 W/m2
07:19 14 °C 14 °C 1014.7 hPa S 5 km/h 5 km/h 96% 0.61 mm 141 W/m2
07:24 14 °C 14 °C 1014.66 hPa SW 6 km/h 5 km/h 96% 0.2 mm 142 W/m2
07:29 15 °C 14 °C 1014.7 hPa SW 3 km/h 2 km/h 96% 0.2 mm 130 W/m2
07:34 15 °C 14 °C 1014.66 hPa SW 5 km/h 5 km/h 96% 0.2 mm 171 W/m2
07:39 15 °C 14 °C 1014.7 hPa WSW 5 km/h 5 km/h 96% 0 mm 193 W/m2
07:44 15 °C 14 °C 1014.66 hPa WNW 3 km/h 1 km/h 96% 0 mm 148 W/m2
07:49 15 °C 14 °C 1014.7 hPa WNW 3 km/h 2 km/h 96% 0 mm 113 W/m2
07:54 15 °C 15 °C 1014.63 hPa SSW 2 km/h 3 km/h 96% 0 mm 83 W/m2
07:59 15 °C 14 °C 1014.66 hPa WNW 6 km/h 8 km/h 95% 0 mm 65 W/m2
08:04 15 °C 14 °C 1014.7 hPa WNW 9 km/h 7 km/h 95% 0 mm 58 W/m2
08:09 15 °C 14 °C 1014.66 hPa NW 8 km/h 9 km/h 95% 0 mm 40 W/m2
08:14 14 °C 14 °C 1014.63 hPa WNW 11 km/h 9 km/h 95% 0 mm 21 W/m2
08:19 14 °C 14 °C 1014.77 hPa WNW 8 km/h 7 km/h 95% 0.41 mm 18 W/m2
08:24 14 °C 13 °C 1014.83 hPa W 6 km/h 5 km/h 95% 0.61 mm 12 W/m2
08:29 14 °C 13 °C 1014.9 hPa SW 7 km/h 7 km/h 95% 1.19 mm 9 W/m2
08:34 14 °C 13 °C 1014.9 hPa S 6 km/h 6 km/h 95% 1.6 mm 7 W/m2
08:39 14 °C 13 °C 1014.8 hPa SSW 4 km/h 3 km/h 96% 2.01 mm 11 W/m2
08:44 14 °C 13 °C 1014.7 hPa S 5 km/h 3 km/h 96% 2.21 mm 28 W/m2
08:49 14 °C 13 °C 1014.66 hPa SSE 4 km/h 4 km/h 96% 2.21 mm 60 W/m2
08:54 14 °C 13 °C 1014.56 hPa SSE 3 km/h 3 km/h 96% 2.21 mm 90 W/m2
08:59 14 °C 13 °C 1014.6 hPa SSE 3 km/h 4 km/h 96% 2.21 mm 93 W/m2
09:04 14 °C 13 °C 1014.7 hPa SSE 6 km/h 5 km/h 96% 2.21 mm 84 W/m2
09:09 14 °C 13 °C 1014.7 hPa SSE 6 km/h 5 km/h 96% 2.21 mm 79 W/m2
09:14 14 °C 13 °C 1014.7 hPa SSE 6 km/h 5 km/h 96% 2.21 mm 127 W/m2
09:19 14 °C 13 °C 1014.73 hPa SE 6 km/h 7 km/h 96% 2.21 mm 139 W/m2
09:24 14 °C 13 °C 1014.73 hPa SSE 7 km/h 7 km/h 96% 1.8 mm 148 W/m2
09:29 14 °C 13 °C 1014.77 hPa SSE 7 km/h 6 km/h 96% 1.4 mm 149 W/m2
09:34 14 °C 13 °C 1014.77 hPa SSE 6 km/h 6 km/h 96% 0.99 mm 156 W/m2
09:39 14 °C 13 °C 1014.7 hPa SE 6 km/h 6 km/h 96% 0.61 mm 211 W/m2
09:44 14 °C 14 °C 1014.73 hPa SE 6 km/h 5 km/h 96% 0.2 mm 258 W/m2
09:49 14 °C 14 °C 1014.73 hPa SE 5 km/h 5 km/h 96% 0 mm 374 W/m2
09:54 14 °C 14 °C 1014.7 hPa SSE 5 km/h 5 km/h 96% 0 mm 374 W/m2
09:59 14 °C 14 °C 1014.66 hPa SSE 7 km/h 6 km/h 95% 0 mm 308 W/m2
10:04 14 °C 14 °C 1014.7 hPa S 6 km/h 6 km/h 95% 0 mm 294 W/m2
10:09 15 °C 14 °C 1014.7 hPa SE 7 km/h 6 km/h 95% 0 mm 494 W/m2
10:14 15 °C 14 °C 1014.73 hPa SSE 8 km/h 8 km/h 95% 0 mm 673 W/m2
10:19 15 °C 14 °C 1014.7 hPa SSE 7 km/h 6 km/h 95% 0 mm 693 W/m2
10:24 15 °C 14 °C 1014.66 hPa SSE 7 km/h 7 km/h 95% 0 mm 710 W/m2
10:29 15 °C 14 °C 1014.6 hPa S 8 km/h 9 km/h 93% 0 mm 710 W/m2
10:34 15 °C 14 °C 1014.6 hPa S 7 km/h 8 km/h 93% 0 mm 599 W/m2
10:39 16 °C 14 °C 1014.6 hPa S 10 km/h 9 km/h 93% 0 mm 837 W/m2
10:44 16 °C 15 °C 1014.6 hPa SSE 10 km/h 9 km/h 92% 0 mm 810 W/m2
10:49 16 °C 14 °C 1014.6 hPa SSE 11 km/h 11 km/h 91% 0 mm 722 W/m2
10:54 16 °C 15 °C 1014.56 hPa S 9 km/h 9 km/h 92% 0 mm 726 W/m2
10:59 16 °C 15 °C 1014.56 hPa S 13 km/h 11 km/h 91% 0 mm 726 W/m2
11:04 16 °C 15 °C 1014.56 hPa SSE 12 km/h 11 km/h 90% 0 mm 742 W/m2
11:09 16 °C 14 °C 1014.56 hPa SSE 16 km/h 14 km/h 89% 0 mm 742 W/m2
11:14 16 °C 15 °C 1014.6 hPa SSE 13 km/h 11 km/h 90% 0 mm 728 W/m2
11:19 16 °C 15 °C 1014.63 hPa SSE 13 km/h 12 km/h 89% 0 mm 803 W/m2
11:24 16 °C 15 °C 1014.63 hPa S 14 km/h 13 km/h 90% 0 mm 881 W/m2
11:29 17 °C 15 °C 1014.6 hPa S 11 km/h 11 km/h 89% 0 mm 881 W/m2
11:34 17 °C 15 °C 1014.56 hPa S 11 km/h 10 km/h 88% 0 mm 429 W/m2
11:39 17 °C 15 °C 1014.63 hPa S 12 km/h 10 km/h 88% 0 mm 355 W/m2
11:44 16 °C 15 °C 1014.66 hPa S 13 km/h 12 km/h 89% 0 mm 352 W/m2
11:49 16 °C 14 °C 1014.73 hPa SSE 13 km/h 11 km/h 89% 0 mm 251 W/m2
11:54 16 °C 15 °C 1014.66 hPa SSE 9 km/h 9 km/h 91% 0 mm 211 W/m2
11:59 16 °C 14 °C 1014.6 hPa SSE 11 km/h 9 km/h 91% 0 mm 202 W/m2
12:04 16 °C 15 °C 1014.6 hPa SSE 10 km/h 10 km/h 92% 0 mm 791 W/m2
12:09 16 °C 15 °C 1014.63 hPa S 11 km/h 10 km/h 92% 0 mm 814 W/m2
12:14 16 °C 15 °C 1014.63 hPa SSE 13 km/h 13 km/h 91% 0 mm 882 W/m2
12:19 16 °C 15 °C 1014.6 hPa SSE 12 km/h 12 km/h 91% 0 mm 877 W/m2
12:24 17 °C 15 °C 1014.6 hPa S 13 km/h 11 km/h 91% 0 mm 898 W/m2
12:29 17 °C 15 °C 1014.53 hPa SSE 12 km/h 12 km/h 90% 0 mm 993 W/m2
12:34 17 °C 15 °C 1014.53 hPa S 10 km/h 10 km/h 90% 0 mm 993 W/m2
12:39 17 °C 16 °C 1014.53 hPa S 10 km/h 11 km/h 89% 0 mm 373 W/m2
12:44 17 °C 15 °C 1014.49 hPa S 12 km/h 12 km/h 88% 0 mm 373 W/m2
12:49 17 °C 15 °C 1014.49 hPa SW 14 km/h 14 km/h 87% 0 mm 272 W/m2
12:54 17 °C 15 °C 1014.46 hPa SSW 13 km/h 12 km/h 86% 0 mm 868 W/m2
12:59 17 °C 15 °C 1014.46 hPa SSW 14 km/h 14 km/h 85% 0 mm 956 W/m2
13:04 17 °C 15 °C 1014.46 hPa SW 16 km/h 14 km/h 84% 0 mm 956 W/m2
13:09 17 °C 14 °C 1014.49 hPa SSW 17 km/h 14 km/h 84% 0 mm 874 W/m2
13:14 17 °C 15 °C 1014.53 hPa SSW 16 km/h 14 km/h 85% 0 mm 874 W/m2
13:19 17 °C 15 °C 1014.53 hPa SSW 15 km/h 14 km/h 85% 0 mm 888 W/m2
13:24 18 °C 15 °C 1014.53 hPa SSW 14 km/h 13 km/h 85% 0 mm 888 W/m2
13:29 18 °C 15 °C 1014.53 hPa SSW 15 km/h 11 km/h 84% 0 mm 823 W/m2
13:34 18 °C 15 °C 1014.56 hPa SSW 18 km/h 13 km/h 83% 0 mm 821 W/m2
13:39 18 °C 15 °C 1014.6 hPa SSW 16 km/h 14 km/h 83% 0 mm 816 W/m2
13:44 18 °C 15 °C 1014.56 hPa SSW 15 km/h 13 km/h 83% 0 mm 803 W/m2
13:49 18 °C 15 °C 1014.56 hPa SSW 16 km/h 13 km/h 83% 0 mm 798 W/m2
13:54 18 °C 15 °C 1014.56 hPa SSW 16 km/h 15 km/h 83% 0 mm 796 W/m2
13:59 18 °C 15 °C 1014.53 hPa S 19 km/h 15 km/h 83% 0 mm 803 W/m2
14:04 18 °C 15 °C 1014.46 hPa SSW 18 km/h 14 km/h 83% 0 mm 793 W/m2
14:09 18 °C 15 °C 1014.46 hPa SSW 21 km/h 17 km/h 83% 0 mm 791 W/m2
14:14 18 °C 15 °C 1014.43 hPa SSW 18 km/h 14 km/h 83% 0 mm 791 W/m2
14:19 18 °C 15 °C 1014.39 hPa SW 17 km/h 14 km/h 83% 0 mm 780 W/m2
14:24 18 °C 15 °C 1014.36 hPa SW 21 km/h 17 km/h 82% 0 mm 782 W/m2
14:29 18 °C 15 °C 1014.36 hPa SSW 20 km/h 19 km/h 82% 0 mm 775 W/m2
14:34 18 °C 15 °C 1014.36 hPa SSW 19 km/h 17 km/h 81% 0 mm 772 W/m2
14:39 18 °C 15 °C 1014.36 hPa SSW 20 km/h 17 km/h 81% 0 mm 770 W/m2
14:44 18 °C 15 °C 1014.36 hPa SSW 20 km/h 19 km/h 81% 0 mm 766 W/m2
14:49 18 °C 15 °C 1014.36 hPa SW 21 km/h 18 km/h 82% 0 mm 765 W/m2
14:54 18 °C 15 °C 1014.33 hPa SW 18 km/h 13 km/h 83% 0 mm 759 W/m2
14:59 18 °C 15 °C 1014.33 hPa SW 18 km/h 16 km/h 83% 0 mm 756 W/m2
15:04 18 °C 15 °C 1014.26 hPa SSW 20 km/h 15 km/h 82% 0 mm 752 W/m2
15:09 18 °C 15 °C 1014.26 hPa SW 20 km/h 16 km/h 81% 0 mm 749 W/m2
15:14 18 °C 15 °C 1014.19 hPa SSW 21 km/h 17 km/h 81% 0 mm 744 W/m2
15:19 18 °C 15 °C 1014.19 hPa SSW 22 km/h 18 km/h 82% 0 mm 738 W/m2
15:24 18 °C 15 °C 1014.16 hPa SSW 18 km/h 15 km/h 81% 0 mm 733 W/m2
15:29 18 °C 15 °C 1014.19 hPa SSW 20 km/h 18 km/h 81% 0 mm 726 W/m2
15:34 18 °C 15 °C 1014.22 hPa SSW 21 km/h 17 km/h 81% 0 mm 722 W/m2
15:39 18 °C 15 °C 1014.26 hPa SSW 21 km/h 17 km/h 82% 0 mm 717 W/m2
15:44 18 °C 15 °C 1014.26 hPa SSW 20 km/h 18 km/h 82% 0 mm 710 W/m2
15:49 18 °C 15 °C 1014.26 hPa SSW 16 km/h 13 km/h 82% 0 mm 705 W/m2
15:54 19 °C 15 °C 1014.29 hPa SSW 16 km/h 15 km/h 81% 0 mm 700 W/m2
15:59 18 °C 15 °C 1014.33 hPa SSW 20 km/h 16 km/h 81% 0 mm 693 W/m2
16:04 18 °C 15 °C 1014.29 hPa SSW 19 km/h 17 km/h 81% 0 mm 684 W/m2
16:09 18 °C 15 °C 1014.33 hPa SSW 22 km/h 16 km/h 81% 0 mm 679 W/m2
16:14 18 °C 15 °C 1014.39 hPa SW 21 km/h 18 km/h 80% 0 mm 671 W/m2
16:19 18 °C 14 °C 1014.39 hPa SSW 21 km/h 17 km/h 79% 0 mm 666 W/m2
16:24 18 °C 14 °C 1014.33 hPa SSW 19 km/h 19 km/h 80% 0 mm 659 W/m2
16:29 18 °C 14 °C 1014.33 hPa SSW 22 km/h 19 km/h 79% 0 mm 650 W/m2
16:34 18 °C 15 °C 1014.36 hPa SSW 17 km/h 14 km/h 80% 0 mm 642 W/m2
16:39 18 °C 15 °C 1014.39 hPa SSW 17 km/h 13 km/h 79% 0 mm 635 W/m2
16:44 18 °C 15 °C 1014.39 hPa SSW 19 km/h 16 km/h 78% 0 mm 626 W/m2
16:49 18 °C 14 °C 1014.36 hPa SSW 24 km/h 18 km/h 78% 0 mm 619 W/m2
16:54 18 °C 15 °C 1014.36 hPa SSW 18 km/h 15 km/h 79% 0 mm 610 W/m2
16:59 18 °C 15 °C 1014.36 hPa SSW 20 km/h 16 km/h 79% 0 mm 601 W/m2
Compliments of Weather Underground - 2 mb